Terminal Aerodrome Forecast
Issued by NWS Twin Cities, MN

Home | Current Version | Previous Version | Graphics & Text | Print | Product List | Glossary On
Versions: 1 2 3 4 5 6 7 8 9 10 11 12 13 14 15
548
FTUS43 KMPX 200520
TAFSTC
TAF
KSTC 200520Z 2006/2106 15014G23KT 6SM -SHRA BR SCT040 BKN070
      TEMPO 2007/2010 2SM TSRA BR OVC040CB
     FM201100 20010KT P6SM OVC040
     FM201400 24011KT P6SM BKN050
     FM201800 28013G20KT P6SM SCT130
     FM210000 VRB04KT P6SM SKC=

USA.gov is the U.S. government's official web portal to all federal, state and local government web resources and services.